• Join FlightAware (Why Join?)
  • Login
  • US Flag 
04:21AM EST


 

Airport Tracker/Info


-or-


 

Live Flight TrackerFlight Track Log ✈ N415JA ✈ 13-Feb-2014 ✈ KMCO - KIXD

Flight Track Log - Related Links

Times and Time Zones

All times are in EST time to prevent confusion due to time zone crossing. See the N415JA flight status page for this flight to view local times or setup timezone preferences in your user account.

Time Position Orientation Groundspeed Altitude Reporting Facility
EST Latitude Longitude Course Direction KTS MPH feet Rate Location/Type
03:37PM 28.4333 -81.3167 360° North 157 181 400  Level Orlando TRACON
03:37PM 28.4500 -81.3167 360° North 179 206 1,300 2,846 Climbing Orlando TRACON
03:38PM 28.5167 -81.3167 360° North 227 261 4,100 3,211 Climbing Orlando TRACON
03:39PM 28.5667 -81.3500 330° Northwest 230 265 7,400 3,350 Climbing Orlando TRACON
03:40PM 28.5333 -81.4167 240° Southwest 247 284 10,800 2,623 Climbing Orlando TRACON
03:42PM 28.5017 -81.5439 254° West 252 290 14,700 1,940 Climbing Jacksonville Center
03:43PM 28.4900 -81.6289 261° West 262 302 16,200 2,150 Climbing Jacksonville Center
03:44PM 28.4825 -81.7117 264° West 272 313 19,000 2,150 Climbing Jacksonville Center
03:45PM 28.4750 -81.7992 264° West 277 319 20,500 1,450 Climbing Jacksonville Center
03:46PM 28.4611 -81.8914 260° West 283 326 21,900 1,450 Climbing Jacksonville Center
03:47PM 28.4700 -81.9764 277° West 283 326 23,400 1,400 Climbing Jacksonville Center
03:48PM 28.4997 -82.0444 296° West 283 326 24,700 1,550 Climbing Jacksonville Center
03:49PM 28.5794 -82.0911 333° Northwest 277 319 26,500 1,600 Climbing Jacksonville Center
03:50PM 28.6508 -82.1497 324° Northwest 296 341 27,900 1,550 Climbing Jacksonville Center
03:51PM 28.7178 -82.2131 320° Northwest 308 354 29,600 1,250 Climbing Jacksonville Center
03:52PM 28.7850 -82.2767 320° Northwest 308 354 30,400 950 Climbing Jacksonville Center
03:53PM 28.8583 -82.3472 320° Northwest 314 361 31,500 1,100 Climbing Jacksonville Center
03:54PM 28.9275 -82.4111 321° Northwest 314 361 32,600 1,100 Climbing Jacksonville Center
03:55PM 28.9944 -82.4747 320° Northwest 314 361 33,700 1,050 Climbing Jacksonville Center
03:56PM 29.0594 -82.5433 317° Northwest 314 361 34,700 750 Climbing Jacksonville Center
03:57PM 29.1242 -82.6144 316° Northwest 314 361 35,200 550 Climbing Jacksonville Center
03:58PM 29.1892 -82.6833 317° Northwest 314 361 35,800 400 Climbing Jacksonville Center
03:59PM 29.2581 -82.7569 317° Northwest 324 373 36,000 100 Climbing Jacksonville Center
04:00PM 29.3269 -82.8331 316° Northwest 330 380 36,000  Level Jacksonville Center
04:01PM 29.4000 -82.9092 318° Northwest 335 386 36,000  Level Jacksonville Center
04:02PM 29.4711 -82.9903 315° West 348 400 36,000  Level Jacksonville Center
04:03PM 29.5419 -83.0644 318° Northwest 370 426 36,000 250 Level Jacksonville Center
04:04PM 29.6169 -83.1458 317° Northwest 370 426 36,500 400 Climbing Jacksonville Center
04:05PM 29.6939 -83.2272 317° Northwest 365 420 36,800 550 Climbing Jacksonville Center
04:06PM 29.7669 -83.3089 316° Northwest 365 420 37,600 650 Climbing Jacksonville Center
04:07PM 29.8375 -83.3833 318° Northwest 360 414 38,100 450 Climbing Jacksonville Center
04:08PM 29.9019 -83.4556 316° Northwest 354 407 38,500 400 Climbing Jacksonville Center
04:09PM 29.9725 -83.5303 317° Northwest 349 402 38,900 450 Climbing Jacksonville Center
04:10PM 30.0411 -83.6075 316° Northwest 349 402 39,400 450 Climbing Jacksonville Center
04:11PM 30.1075 -83.6778 318° Northwest 339 390 39,800 300 Climbing Jacksonville Center
04:12PM 30.1739 -83.7553 315° West 339 390 40,000 100 Climbing Jacksonville Center
04:13PM 30.2422 -83.8278 318° Northwest 334 384 40,000  Level Jacksonville Center
04:14PM 30.3083 -83.9008 316° Northwest 334 384 40,000  Level Jacksonville Center
04:15PM 30.3789 -83.9786 316° Northwest 334 384 40,000  Level Jacksonville Center
04:16PM 30.4469 -84.0539 316° Northwest 334 384 40,000  Level Jacksonville Center
04:17PM 30.5153 -84.1294 316° Northwest 334 384 40,000  Level Jacksonville Center
04:18PM 30.5833 -84.2100 314° West 334 384 40,000  Level Jacksonville Center
04:19PM 30.6536 -84.2883 316° Northwest 344 396 40,000  Level Jacksonville Center
04:20PM 30.7256 -84.3692 316° Northwest 349 402 40,000  Level Jacksonville Center
04:21PM 30.7958 -84.4475 316° Northwest 349 402 40,000  Level Jacksonville Center
04:22PM 30.8678 -84.5311 315° West 349 402 40,000  Level Jacksonville Center
04:23PM 30.9397 -84.6097 317° Northwest 354 407 40,000  Level Jacksonville Center
04:24PM 31.0097 -84.6886 316° Northwest 354 407 40,000  Level Jacksonville Center
04:25PM 31.0817 -84.7700 316° Northwest 354 407 40,000  Level Jacksonville Center
04:26PM 31.1969 -84.9006 316° Northwest 353 406 40,000  Level Atlanta Center
04:27PM 31.2650 -84.9789 315° West 353 406 40,000  Level Atlanta Center
04:28PM 31.3375 -85.0625 315° West 353 406 40,000  Level Atlanta Center
04:29PM 31.4100 -85.1411 317° Northwest 353 406 40,000  Level Atlanta Center
04:30PM 31.4864 -85.2297 315° West 353 406 40,000  Level Atlanta Center
04:31PM 31.5564 -85.3111 315° West 353 406 40,000  Level Atlanta Center
04:32PM 31.6267 -85.3900 316° Northwest 353 406 40,000  Level Atlanta Center
04:33PM 31.6986 -85.4717 316° Northwest 353 406 40,000  Level Atlanta Center
04:34PM 31.7686 -85.5558 314° West 353 406 40,000  Level Atlanta Center
04:35PM 31.8406 -85.6378 316° Northwest 353 406 40,000  Level Atlanta Center
04:36PM 31.9125 -85.7197 316° Northwest 353 406 40,000  Level Atlanta Center
04:37PM 31.9844 -85.8092 313° West 358 412 40,000  Level Atlanta Center
04:38PM 32.0561 -85.8939 315° West 358 412 40,000  Level Atlanta Center
04:39PM 32.1300 -85.9739 317° Northwest 358 412 40,000  Level Atlanta Center
04:40PM 32.2039 -86.0614 315° West 358 412 40,000  Level Atlanta Center
04:41PM 32.2733 -86.1467 314° West 358 412 40,000  Level Atlanta Center
04:42PM 32.3492 -86.2269 318° Northwest 353 406 40,000  Level Atlanta Center
04:43PM 32.4144 -86.3147 311° West 353 406 40,000  Level Atlanta Center
04:44PM 32.4861 -86.3953 317° Northwest 353 406 40,000  Level Atlanta Center
04:45PM 32.5514 -86.4711 316° Northwest 363 418 40,000  Level Atlanta Center
04:46PM 32.6228 -86.5544 315° West 363 418 40,000  Level Atlanta Center
04:47PM 32.6919 -86.6403 314° West 363 418 40,000  Level Atlanta Center
04:48PM 32.7631 -86.7214 316° Northwest 358 412 40,000  Level Atlanta Center
04:49PM 32.8322 -86.8050 315° West 358 412 40,000  Level Atlanta Center
04:50PM 32.9033 -86.8914 314° West 358 412 40,000  Level Atlanta Center
04:51PM 32.9744 -86.9756 315° West 358 412 40,000  Level Atlanta Center
04:52PM 33.0475 -87.0672 314° West 352 405 40,000  Level Atlanta Center
04:53PM 33.1061 -87.1361 315° West 352 405 40,000  Level Atlanta Center
04:54PM 33.1811 -87.2281 314° West 359 413 40,000  Level Atlanta Center
04:55PM 33.2519 -87.3153 314° West 359 413 40,000  Level Atlanta Center
04:57PM 33.3764 -87.4653 315° West 365 420 40,000  Level Memphis Center
04:58PM 33.4483 -87.5528 315° West 367 422 40,000  Level Memphis Center
04:59PM 33.5197 -87.6403 314° West 367 422 40,000  Level Memphis Center
05:00PM 33.5914 -87.7286 314° West 368 423 40,000  Level Memphis Center
05:01PM 33.6622 -87.8169 314° West 367 422 40,000  Level Memphis Center
05:02PM 33.7344 -87.9047 315° West 368 423 40,000  Level Memphis Center
05:03PM 33.8061 -87.9944 314° West 369 425 40,000  Level Memphis Center
05:04PM 33.8911 -88.1006 314° West 367 422 40,000  Level Memphis Center
05:05PM 33.9622 -88.1886 314° West 366 421 40,000  Level Memphis Center
05:06PM 34.0339 -88.2769 314° West 367 422 40,000  Level Memphis Center
05:07PM 34.1042 -88.3658 314° West 366 421 40,000  Level Memphis Center
05:08PM 34.1744 -88.4547 314° West 365 420 40,000  Level Memphis Center
05:09PM 34.2447 -88.5433 314° West 365 420 40,000  Level Memphis Center
05:10PM 34.3281 -88.6494 314° West 362 417 40,000  Level Memphis Center
05:11PM 34.3994 -88.7383 314° West 365 420 40,000  Level Memphis Center
05:12PM 34.4697 -88.8272 314° West 367 422 40,000  Level Memphis Center
05:13PM 34.5375 -88.9142 313° West 359 413 40,000  Level Memphis Center
05:15PM 34.6058 -89.0019 313° West 358 412 40,000  Level Memphis Center
05:16PM 34.6753 -89.0892 314° West 358 412 40,000  Level Memphis Center
05:17PM 34.7572 -89.1950 313° West 358 412 40,000  Level Memphis Center
05:18PM 34.8256 -89.2825 314° West 357 411 40,000  Level Memphis Center
05:19PM 34.8911 -89.3661 314° West 354 407 40,000  Level Memphis Center
05:20PM 34.9583 -89.4550 313° West 355 409 40,000  Level Memphis Center
05:21PM 35.0272 -89.5431 314° West 357 411 40,000  Level Memphis Center
05:22PM 35.1089 -89.6492 313° West 356 410 40,000  Level Memphis Center
05:23PM 35.1758 -89.7378 313° West 355 409 40,000  Level Memphis Center
05:24PM 35.2428 -89.8256 313° West 354 407 40,000  Level Memphis Center
05:25PM 35.3100 -89.9128 313° West 352 405 40,000  Level Memphis Center
05:26PM 35.3778 -90.0022 313° West 354 407 40,000  Level Memphis Center
05:27PM 35.4447 -90.0897 313° West 354 407 40,000  Level Memphis Center
05:28PM 35.5128 -90.1786 313° West 354 407 40,000  Level Memphis Center
05:29PM 35.5906 -90.2842 312° West 349 402 40,000  Level Memphis Center
05:30PM 35.6581 -90.3731 313° West 352 405 40,000  Level Memphis Center
05:31PM 35.7244 -90.4608 313° West 350 403 40,000  Level Memphis Center
05:32PM 35.7914 -90.5500 313° West 352 405 40,000  Level Memphis Center
05:33PM 35.8581 -90.6378 313° West 351 404 40,000  Level Memphis Center
05:34PM 35.9231 -90.7267 312° West 349 402 40,000  Level Memphis Center
05:35PM 35.9889 -90.8150 313° West 348 400 40,000  Level Memphis Center
05:36PM 36.0658 -90.9194 312° West 345 397 40,000  Level Memphis Center
05:37PM 36.1314 -91.0083 312° West 346 398 40,000  Level Memphis Center
05:38PM 36.1964 -91.0958 313° West 346 398 40,000  Level Memphis Center
05:39PM 36.2603 -91.1844 312° West 345 397 40,000  Level Memphis Center
05:40PM 36.3247 -91.2708 313° West 342 394 40,000  Level Memphis Center
05:41PM 36.3875 -91.3578 312° West 340 391 40,000  Level Memphis Center
05:42PM 36.4647 -91.4633 312° West 341 392 40,000  Level Memphis Center
05:43PM 36.5219 -91.5428 312° West 343 395 40,000  Level Memphis Center
05:45PM 36.5864 -91.6317 312° West 344 396 40,000  Level Memphis Center
05:45PM 36.6381 -91.7017 313° West 342 394 40,000  Level Kansas City Center
05:46PM 36.7019 -91.7906 312° West 342 394 40,000  Level Kansas City Center
05:47PM 36.7667 -91.8822 311° West 348 400 40,000  Level Kansas City Center
05:48PM 36.8444 -91.9875 313° West 344 396 40,000  Level Kansas City Center
05:49PM 36.9092 -92.0789 312° West 347 399 40,000  Level Kansas City Center
05:50PM 36.9736 -92.1703 311° West 348 400 40,000  Level Kansas City Center
05:51PM 37.0381 -92.2608 312° West 347 399 40,000  Level Kansas City Center
05:53PM 37.1028 -92.3531 311° West 350 403 40,000  Level Kansas City Center
05:54PM 37.1667 -92.4433 312° West 347 399 40,000  Level Kansas City Center
05:55PM 37.2300 -92.5333 311° West 345 397 40,000 -823 Level Kansas City Center
05:56PM 37.2928 -92.6217 312° West 342 394 38,300 -1,452 Descending Kansas City Center
05:57PM 37.3656 -92.7258 311° West 332 382 37,000 -629 Descending Kansas City Center
05:58PM 37.4261 -92.8114 312° West 327 376 37,000  Level Kansas City Center
05:59PM 37.4886 -92.9006 311° West 333 383 37,000  Level Kansas City Center
06:00PM 37.5503 -92.9900 311° West 335 386 37,000  Level Kansas City Center
06:01PM 37.6125 -93.0786 312° West 335 386 37,000 -532 Level Kansas City Center
06:02PM 37.6733 -93.1686 311° West 335 386 35,900 -968 Descending Kansas City Center
06:03PM 37.7339 -93.2558 311° West 330 380 35,000 -1,403 Descending Kansas City Center
06:04PM 37.7939 -93.3433 311° West 328 377 33,000 -2,129 Descending Kansas City Center
06:05PM 37.8672 -93.4508 311° West 333 383 30,600 -2,129 Descending Kansas City Center
06:06PM 37.9306 -93.5408 312° West 338 389 28,600 -1,887 Descending Kansas City Center
06:07PM 37.9914 -93.6342 310° West 341 392 26,700 -1,887 Descending Kansas City Center
06:08PM 38.0550 -93.7242 312° West 341 392 24,700 -1,935 Descending Kansas City Center
06:09PM 38.1156 -93.8150 310° West 336 387 22,700 -1,935 Descending Kansas City Center
06:10PM 38.1744 -93.9039 310° West 330 380 20,700 -1,887 Descending Kansas City Center
06:11PM 38.2342 -93.9900 311° West 326 375 18,800 -1,839 Descending Kansas City Center
06:12PM 38.2919 -94.0764 310° West 321 369 16,900 -1,935 Descending Kansas City Center
06:13PM 38.3531 -94.1694 310° West 320 368 14,800 -2,032 Descending Kansas City Center
06:14PM 38.4189 -94.2631 312° West 318 366 12,700 -1,790 Descending Kansas City Center
06:15PM 38.4669 -94.3358 310° West 274 315 11,100 -1,536 Descending Kansas City Center
06:16PM 38.5158 -94.4078 311° West 246 283 9,500 -1,440 Descending Kansas City Center
06:17PM 38.5586 -94.4736 310° West 245 282 8,100 -1,500 Descending Kansas City Center
06:18PM 38.6058 -94.5453 310° West 241 277 6,400 -1,500 Descending Kansas City Center
06:19PM 38.6472 -94.6100 309° West 244 281 5,000 -1,355 Descending Kansas City Center
06:20PM 38.6967 -94.6842 311° West 244 281 3,600 -968 Descending Kansas City Center
06:21PM 38.7353 -94.7483 308° West 238 274 3,000 -290 Descending Kansas City Center
06:22PM 38.7731 -94.8175 305° West 210 242 3,000  Level Kansas City Center
06:24PM 38.8106 -94.8464 329° Northwest 186 214 3,000 -145 Level Kansas City Center
06:25PM 38.8694 -94.8383 North 188 216 2,700 -242 Descending Kansas City Center
06:26PM 38.8947 -94.8703 315° West 162 186 2,500 -435 Descending Kansas City Center
06:27PM 38.8636 -94.8922 209° Southwest 140 161 1,800 -629 Descending Kansas City Center
06:28PM 38.8217 -94.8922 180° South 131 151 1,200 -581 Descending Kansas City Center